sensor_id;sensor_type;location;lat;lon;timestamp;P1;durP1;ratioP1;P2;durP2;ratioP2
65315;SDS011;51920;53.952;10.292;2023-03-31T00:01:41;19.90;;;4.70;;
65315;SDS011;51920;53.952;10.292;2023-03-31T00:04:08;16.35;;;4.80;;
65315;SDS011;51920;53.952;10.292;2023-03-31T00:06:39;20.08;;;4.78;;
65315;SDS011;51920;53.952;10.292;2023-03-31T00:09:10;19.33;;;4.47;;
65315;SDS011;51920;53.952;10.292;2023-03-31T00:11:39;16.10;;;4.53;;
65315;SDS011;51920;53.952;10.292;2023-03-31T00:14:06;20.70;;;5.30;;
65315;SDS011;51920;53.952;10.292;2023-03-31T00:16:33;15.82;;;4.45;;
65315;SDS011;51920;53.952;10.292;2023-03-31T00:19:01;19.63;;;5.13;;
65315;SDS011;51920;53.952;10.292;2023-03-31T00:21:28;18.42;;;4.35;;
65315;SDS011;51920;53.952;10.292;2023-03-31T00:23:59;21.52;;;4.78;;
65315;SDS011;51920;53.952;10.292;2023-03-31T00:26:29;18.97;;;4.37;;
65315;SDS011;51920;53.952;10.292;2023-03-31T00:28:56;16.73;;;4.22;;
65315;SDS011;51920;53.952;10.292;2023-03-31T00:31:24;15.02;;;4.20;;
65315;SDS011;51920;53.952;10.292;2023-03-31T00:33:53;20.90;;;4.68;;
65315;SDS011;51920;53.952;10.292;2023-03-31T00:36:20;23.05;;;4.50;;
65315;SDS011;51920;53.952;10.292;2023-03-31T00:38:53;14.60;;;4.27;;
65315;SDS011;51920;53.952;10.292;2023-03-31T00:41:34;18.52;;;4.22;;
65315;SDS011;51920;53.952;10.292;2023-03-31T00:46:45;22.73;;;4.45;;
65315;SDS011;51920;53.952;10.292;2023-03-31T00:49:30;21.95;;;4.38;;
65315;SDS011;51920;53.952;10.292;2023-03-31T00:52:00;24.87;;;5.07;;
65315;SDS011;51920;53.952;10.292;2023-03-31T00:54:32;20.75;;;4.53;;
65315;SDS011;51920;53.952;10.292;2023-03-31T00:57:00;16.13;;;4.65;;
65315;SDS011;51920;53.952;10.292;2023-03-31T00:59:29;20.45;;;4.72;;
65315;SDS011;51920;53.952;10.292;2023-03-31T01:01:57;14.82;;;4.60;;
65315;SDS011;51920;53.952;10.292;2023-03-31T01:04:29;17.47;;;4.27;;
65315;SDS011;51920;53.952;10.292;2023-03-31T01:07:08;18.88;;;4.90;;
65315;SDS011;51920;53.952;10.292;2023-03-31T01:09:37;19.20;;;4.25;;
65315;SDS011;51920;53.952;10.292;2023-03-31T01:12:05;16.52;;;4.28;;
65315;SDS011;51920;53.952;10.292;2023-03-31T01:14:33;22.38;;;4.13;;
65315;SDS011;51920;53.952;10.292;2023-03-31T01:17:01;21.67;;;4.60;;
65315;SDS011;51920;53.952;10.292;2023-03-31T01:41:56;18.27;;;4.05;;
65315;SDS011;51920;53.952;10.292;2023-03-31T01:47:14;14.27;;;3.38;;
65315;SDS011;51920;53.952;10.292;2023-03-31T01:49:56;16.70;;;4.57;;
65315;SDS011;51920;53.952;10.292;2023-03-31T01:52:36;18.45;;;4.07;;
65315;SDS011;51920;53.952;10.292;2023-03-31T01:55:23;17.73;;;4.20;;
65315;SDS011;51920;53.952;10.292;2023-03-31T01:58:05;17.17;;;4.57;;
65315;SDS011;51920;53.952;10.292;2023-03-31T02:00:44;15.70;;;3.45;;
65315;SDS011;51920;53.952;10.292;2023-03-31T02:03:20;16.13;;;3.80;;
65315;SDS011;51920;53.952;10.292;2023-03-31T02:05:52;21.92;;;4.20;;
65315;SDS011;51920;53.952;10.292;2023-03-31T02:08:28;15.98;;;4.18;;
65315;SDS011;51920;53.952;10.292;2023-03-31T02:11:00;13.77;;;3.60;;
65315;SDS011;51920;53.952;10.292;2023-03-31T02:13:27;18.52;;;4.25;;
65315;SDS011;51920;53.952;10.292;2023-03-31T02:15:59;15.98;;;3.67;;
65315;SDS011;51920;53.952;10.292;2023-03-31T02:18:38;18.23;;;3.70;;
65315;SDS011;51920;53.952;10.292;2023-03-31T02:21:08;17.42;;;3.80;;
65315;SDS011;51920;53.952;10.292;2023-03-31T02:23:36;19.07;;;3.60;;
65315;SDS011;51920;53.952;10.292;2023-03-31T02:26:05;13.13;;;3.35;;
65315;SDS011;51920;53.952;10.292;2023-03-31T02:28:37;23.55;;;3.97;;
65315;SDS011;51920;53.952;10.292;2023-03-31T02:34:01;17.00;;;3.38;;
65315;SDS011;51920;53.952;10.292;2023-03-31T02:36:30;19.17;;;4.40;;
65315;SDS011;51920;53.952;10.292;2023-03-31T02:38:58;18.33;;;3.45;;
65315;SDS011;51920;53.952;10.292;2023-03-31T02:41:29;11.80;;;3.25;;
65315;SDS011;51920;53.952;10.292;2023-03-31T02:43:56;16.25;;;3.50;;
65315;SDS011;51920;53.952;10.292;2023-03-31T02:46:23;15.63;;;3.83;;
65315;SDS011;51920;53.952;10.292;2023-03-31T02:48:52;11.87;;;3.10;;
65315;SDS011;51920;53.952;10.292;2023-03-31T02:59:53;14.25;;;3.58;;
65315;SDS011;51920;53.952;10.292;2023-03-31T03:02:31;22.70;;;3.57;;
65315;SDS011;51920;53.952;10.292;2023-03-31T03:05:16;14.18;;;3.10;;
65315;SDS011;51920;53.952;10.292;2023-03-31T03:10:43;16.25;;;3.83;;
65315;SDS011;51920;53.952;10.292;2023-03-31T03:16:20;16.10;;;3.13;;
65315;SDS011;51920;53.952;10.292;2023-03-31T03:18:59;14.60;;;3.25;;
65315;SDS011;51920;53.952;10.292;2023-03-31T03:21:28;15.45;;;3.38;;
65315;SDS011;51920;53.952;10.292;2023-03-31T03:23:55;19.70;;;3.42;;
65315;SDS011;51920;53.952;10.292;2023-03-31T03:26:22;15.93;;;3.83;;
65315;SDS011;51920;53.952;10.292;2023-03-31T03:28:49;15.97;;;3.20;;
65315;SDS011;51920;53.952;10.292;2023-03-31T03:31:16;17.08;;;3.40;;
65315;SDS011;51920;53.952;10.292;2023-03-31T03:33:43;21.58;;;3.92;;
65315;SDS011;51920;53.952;10.292;2023-03-31T03:36:10;19.27;;;3.42;;
65315;SDS011;51920;53.952;10.292;2023-03-31T03:38:37;18.90;;;4.30;;
65315;SDS011;51920;53.952;10.292;2023-03-31T03:41:04;10.57;;;3.40;;
65315;SDS011;51920;53.952;10.292;2023-03-31T03:43:31;13.40;;;3.25;;
65315;SDS011;51920;53.952;10.292;2023-03-31T03:45:58;16.67;;;3.20;;
65315;SDS011;51920;53.952;10.292;2023-03-31T03:48:25;19.58;;;4.00;;
65315;SDS011;51920;53.952;10.292;2023-03-31T03:50:52;19.15;;;3.50;;
65315;SDS011;51920;53.952;10.292;2023-03-31T03:53:19;16.73;;;3.13;;
65315;SDS011;51920;53.952;10.292;2023-03-31T03:55:46;17.50;;;3.47;;
65315;SDS011;51920;53.952;10.292;2023-03-31T03:58:15;21.05;;;3.60;;
65315;SDS011;51920;53.952;10.292;2023-03-31T04:00:42;12.05;;;3.20;;
65315;SDS011;51920;53.952;10.292;2023-03-31T04:03:10;16.33;;;3.60;;
65315;SDS011;51920;53.952;10.292;2023-03-31T04:05:37;19.50;;;3.57;;
65315;SDS011;51920;53.952;10.292;2023-03-31T04:08:04;14.77;;;3.58;;
65315;SDS011;51920;53.952;10.292;2023-03-31T04:10:33;13.38;;;3.20;;
65315;SDS011;51920;53.952;10.292;2023-03-31T04:13:01;15.57;;;4.22;;
65315;SDS011;51920;53.952;10.292;2023-03-31T04:15:27;12.10;;;3.67;;
65315;SDS011;51920;53.952;10.292;2023-03-31T04:17:54;17.23;;;3.90;;
65315;SDS011;51920;53.952;10.292;2023-03-31T04:20:23;16.05;;;3.22;;
65315;SDS011;51920;53.952;10.292;2023-03-31T04:22:53;20.25;;;4.20;;
65315;SDS011;51920;53.952;10.292;2023-03-31T04:25:20;15.38;;;3.50;;
65315;SDS011;51920;53.952;10.292;2023-03-31T04:27:48;14.02;;;3.60;;
65315;SDS011;51920;53.952;10.292;2023-03-31T04:30:20;11.80;;;3.30;;
65315;SDS011;51920;53.952;10.292;2023-03-31T04:32:53;16.50;;;3.80;;
65315;SDS011;51920;53.952;10.292;2023-03-31T04:35:22;17.45;;;4.07;;
65315;SDS011;51920;53.952;10.292;2023-03-31T04:37:50;18.30;;;4.10;;
65315;SDS011;51920;53.952;10.292;2023-03-31T04:40:24;17.45;;;3.70;;
65315;SDS011;51920;53.952;10.292;2023-03-31T04:42:51;17.63;;;3.90;;
65315;SDS011;51920;53.952;10.292;2023-03-31T04:45:17;18.48;;;4.07;;
65315;SDS011;51920;53.952;10.292;2023-03-31T04:47:44;17.73;;;3.95;;
65315;SDS011;51920;53.952;10.292;2023-03-31T04:50:11;20.38;;;4.50;;
65315;SDS011;51920;53.952;10.292;2023-03-31T04:52:39;17.23;;;4.78;;
65315;SDS011;51920;53.952;10.292;2023-03-31T04:55:06;16.40;;;4.50;;
65315;SDS011;51920;53.952;10.292;2023-03-31T04:57:33;16.10;;;4.43;;
65315;SDS011;51920;53.952;10.292;2023-03-31T05:00:00;15.35;;;4.43;;
65315;SDS011;51920;53.952;10.292;2023-03-31T05:02:27;19.13;;;4.55;;
65315;SDS011;51920;53.952;10.292;2023-03-31T05:04:53;13.63;;;4.47;;
65315;SDS011;51920;53.952;10.292;2023-03-31T05:07:20;14.77;;;5.00;;
65315;SDS011;51920;53.952;10.292;2023-03-31T05:09:46;18.35;;;4.93;;
65315;SDS011;51920;53.952;10.292;2023-03-31T05:12:13;14.10;;;5.40;;
65315;SDS011;51920;53.952;10.292;2023-03-31T05:14:39;16.10;;;4.97;;
65315;SDS011;51920;53.952;10.292;2023-03-31T05:17:06;13.80;;;5.25;;
65315;SDS011;51920;53.952;10.292;2023-03-31T05:19:33;18.17;;;5.37;;
65315;SDS011;51920;53.952;10.292;2023-03-31T05:21:59;14.35;;;4.85;;
65315;SDS011;51920;53.952;10.292;2023-03-31T05:24:26;18.17;;;5.57;;
65315;SDS011;51920;53.952;10.292;2023-03-31T05:26:55;16.48;;;5.25;;
65315;SDS011;51920;53.952;10.292;2023-03-31T05:29:22;18.10;;;5.55;;
65315;SDS011;51920;53.952;10.292;2023-03-31T05:31:49;17.53;;;5.40;;
65315;SDS011;51920;53.952;10.292;2023-03-31T05:34:18;18.73;;;5.70;;
65315;SDS011;51920;53.952;10.292;2023-03-31T05:36:45;17.98;;;5.82;;
65315;SDS011;51920;53.952;10.292;2023-03-31T05:39:13;18.05;;;6.15;;
65315;SDS011;51920;53.952;10.292;2023-03-31T05:41:39;17.73;;;5.38;;
65315;SDS011;51920;53.952;10.292;2023-03-31T05:44:06;17.37;;;5.57;;
65315;SDS011;51920;53.952;10.292;2023-03-31T05:46:33;16.63;;;5.68;;
65315;SDS011;51920;53.952;10.292;2023-03-31T05:48:59;17.05;;;6.75;;
65315;SDS011;51920;53.952;10.292;2023-03-31T05:51:26;21.42;;;6.25;;
65315;SDS011;51920;53.952;10.292;2023-03-31T05:53:52;20.88;;;6.22;;
65315;SDS011;51920;53.952;10.292;2023-03-31T05:56:19;19.47;;;6.20;;
65315;SDS011;51920;53.952;10.292;2023-03-31T05:58:46;15.30;;;6.28;;
65315;SDS011;51920;53.952;10.292;2023-03-31T06:01:14;17.33;;;6.70;;
65315;SDS011;51920;53.952;10.292;2023-03-31T06:03:48;18.73;;;6.60;;
65315;SDS011;51920;53.952;10.292;2023-03-31T06:06:15;16.42;;;6.50;;
65315;SDS011;51920;53.952;10.292;2023-03-31T06:08:45;17.97;;;6.87;;
65315;SDS011;51920;53.952;10.292;2023-03-31T06:11:13;18.08;;;6.97;;
65315;SDS011;51920;53.952;10.292;2023-03-31T06:13:41;17.40;;;6.32;;
65315;SDS011;51920;53.952;10.292;2023-03-31T06:16:09;17.80;;;6.30;;
65315;SDS011;51920;53.952;10.292;2023-03-31T06:18:37;20.10;;;6.43;;
65315;SDS011;51920;53.952;10.292;2023-03-31T06:21:04;18.20;;;6.33;;
65315;SDS011;51920;53.952;10.292;2023-03-31T06:23:32;12.77;;;5.97;;
65315;SDS011;51920;53.952;10.292;2023-03-31T06:26:06;18.02;;;7.00;;
65315;SDS011;51920;53.952;10.292;2023-03-31T06:28:34;15.30;;;6.30;;
65315;SDS011;51920;53.952;10.292;2023-03-31T06:31:05;17.92;;;6.63;;
65315;SDS011;51920;53.952;10.292;2023-03-31T06:33:38;18.07;;;6.90;;
65315;SDS011;51920;53.952;10.292;2023-03-31T06:36:06;16.35;;;6.32;;
65315;SDS011;51920;53.952;10.292;2023-03-31T06:38:34;18.02;;;7.15;;
65315;SDS011;51920;53.952;10.292;2023-03-31T06:41:04;16.50;;;6.55;;
65315;SDS011;51920;53.952;10.292;2023-03-31T06:43:31;15.88;;;6.78;;
65315;SDS011;51920;53.952;10.292;2023-03-31T06:45:58;17.23;;;6.47;;
65315;SDS011;51920;53.952;10.292;2023-03-31T06:48:26;15.85;;;6.80;;
65315;SDS011;51920;53.952;10.292;2023-03-31T06:50:53;13.55;;;5.90;;
65315;SDS011;51920;53.952;10.292;2023-03-31T06:53:20;20.10;;;6.22;;
65315;SDS011;51920;53.952;10.292;2023-03-31T06:55:47;16.13;;;6.38;;
65315;SDS011;51920;53.952;10.292;2023-03-31T06:58:14;16.50;;;6.00;;
65315;SDS011;51920;53.952;10.292;2023-03-31T07:00:40;15.70;;;6.35;;
65315;SDS011;51920;53.952;10.292;2023-03-31T07:03:07;14.43;;;6.40;;
65315;SDS011;51920;53.952;10.292;2023-03-31T07:05:34;15.57;;;6.22;;
65315;SDS011;51920;53.952;10.292;2023-03-31T07:08:01;13.52;;;6.28;;
65315;SDS011;51920;53.952;10.292;2023-03-31T07:10:29;19.13;;;6.93;;
65315;SDS011;51920;53.952;10.292;2023-03-31T07:12:57;17.23;;;6.90;;
65315;SDS011;51920;53.952;10.292;2023-03-31T07:15:24;15.85;;;6.55;;
65315;SDS011;51920;53.952;10.292;2023-03-31T07:17:51;17.63;;;6.55;;
65315;SDS011;51920;53.952;10.292;2023-03-31T07:20:19;14.27;;;7.05;;
65315;SDS011;51920;53.952;10.292;2023-03-31T07:22:47;18.80;;;7.00;;
65315;SDS011;51920;53.952;10.292;2023-03-31T07:25:15;18.08;;;6.53;;
65315;SDS011;51920;53.952;10.292;2023-03-31T07:27:43;17.83;;;7.22;;
65315;SDS011;51920;53.952;10.292;2023-03-31T07:30:17;14.63;;;6.57;;
65315;SDS011;51920;53.952;10.292;2023-03-31T07:32:46;16.33;;;6.80;;
65315;SDS011;51920;53.952;10.292;2023-03-31T07:35:14;18.63;;;6.47;;
65315;SDS011;51920;53.952;10.292;2023-03-31T07:37:42;15.30;;;6.55;;
65315;SDS011;51920;53.952;10.292;2023-03-31T07:40:12;14.90;;;6.85;;
65315;SDS011;51920;53.952;10.292;2023-03-31T07:42:41;17.05;;;6.82;;
65315;SDS011;51920;53.952;10.292;2023-03-31T07:45:09;15.82;;;6.82;;
65315;SDS011;51920;53.952;10.292;2023-03-31T07:47:36;15.47;;;6.47;;
65315;SDS011;51920;53.952;10.292;2023-03-31T07:50:05;16.88;;;7.07;;
65315;SDS011;51920;53.952;10.292;2023-03-31T07:52:33;14.70;;;6.75;;
65315;SDS011;51920;53.952;10.292;2023-03-31T07:55:00;20.30;;;7.25;;
65315;SDS011;51920;53.952;10.292;2023-03-31T07:57:27;15.90;;;8.10;;
65315;SDS011;51920;53.952;10.292;2023-03-31T07:59:54;18.40;;;7.80;;
65315;SDS011;51920;53.952;10.292;2023-03-31T08:02:21;21.92;;;7.70;;
65315;SDS011;51920;53.952;10.292;2023-03-31T08:04:47;17.98;;;8.13;;
65315;SDS011;51920;53.952;10.292;2023-03-31T08:07:14;19.65;;;7.90;;
65315;SDS011;51920;53.952;10.292;2023-03-31T08:09:43;17.98;;;8.13;;
65315;SDS011;51920;53.952;10.292;2023-03-31T08:12:11;19.23;;;8.17;;
65315;SDS011;51920;53.952;10.292;2023-03-31T08:14:39;19.45;;;8.43;;
65315;SDS011;51920;53.952;10.292;2023-03-31T08:17:07;16.02;;;7.72;;
65315;SDS011;51920;53.952;10.292;2023-03-31T08:19:34;18.83;;;7.95;;
65315;SDS011;51920;53.952;10.292;2023-03-31T08:22:01;22.17;;;7.95;;
65315;SDS011;51920;53.952;10.292;2023-03-31T08:24:28;17.43;;;7.70;;
65315;SDS011;51920;53.952;10.292;2023-03-31T08:26:55;17.02;;;7.65;;
65315;SDS011;51920;53.952;10.292;2023-03-31T08:29:21;17.85;;;7.30;;
65315;SDS011;51920;53.952;10.292;2023-03-31T08:31:48;15.27;;;6.95;;
65315;SDS011;51920;53.952;10.292;2023-03-31T08:34:15;18.83;;;6.97;;
65315;SDS011;51920;53.952;10.292;2023-03-31T08:36:42;15.93;;;6.17;;
65315;SDS011;51920;53.952;10.292;2023-03-31T08:39:08;10.77;;;5.78;;
65315;SDS011;51920;53.952;10.292;2023-03-31T08:46:57;15.07;;;5.25;;
65315;SDS011;51920;53.952;10.292;2023-03-31T08:49:24;13.90;;;5.43;;
65315;SDS011;51920;53.952;10.292;2023-03-31T08:51:57;15.23;;;6.05;;
65315;SDS011;51920;53.952;10.292;2023-03-31T08:57:03;13.90;;;6.05;;
65315;SDS011;51920;53.952;10.292;2023-03-31T08:59:36;13.75;;;6.25;;
65315;SDS011;51920;53.952;10.292;2023-03-31T09:07:44;16.80;;;7.10;;
65315;SDS011;51920;53.952;10.292;2023-03-31T09:15:40;14.80;;;7.40;;
65315;SDS011;51920;53.952;10.292;2023-03-31T09:18:15;15.23;;;7.53;;
65315;SDS011;51920;53.952;10.292;2023-03-31T09:20:51;18.92;;;8.07;;
65315;SDS011;51920;53.952;10.292;2023-03-31T09:26:40;15.60;;;7.25;;
65315;SDS011;51920;53.952;10.292;2023-03-31T09:29:23;14.20;;;7.17;;
65315;SDS011;51920;53.952;10.292;2023-03-31T09:31:52;12.25;;;6.85;;
65315;SDS011;51920;53.952;10.292;2023-03-31T09:34:29;13.40;;;7.25;;
65315;SDS011;51920;53.952;10.292;2023-03-31T09:36:58;15.70;;;7.13;;
65315;SDS011;51920;53.952;10.292;2023-03-31T09:39:27;13.88;;;7.60;;
65315;SDS011;51920;53.952;10.292;2023-03-31T09:41:53;17.50;;;8.10;;
65315;SDS011;51920;53.952;10.292;2023-03-31T09:44:22;21.10;;;9.27;;
65315;SDS011;51920;53.952;10.292;2023-03-31T09:47:06;20.58;;;9.65;;
65315;SDS011;51920;53.952;10.292;2023-03-31T09:49:39;18.67;;;8.80;;
65315;SDS011;51920;53.952;10.292;2023-03-31T09:54:52;13.60;;;7.60;;
65315;SDS011;51920;53.952;10.292;2023-03-31T09:57:34;14.43;;;7.65;;
65315;SDS011;51920;53.952;10.292;2023-03-31T10:02:51;11.50;;;6.20;;
65315;SDS011;51920;53.952;10.292;2023-03-31T10:05:35;14.05;;;6.07;;
65315;SDS011;51920;53.952;10.292;2023-03-31T10:10:55;9.73;;;4.90;;
65315;SDS011;51920;53.952;10.292;2023-03-31T10:13:28;11.80;;;5.50;;
65315;SDS011;51920;53.952;10.292;2023-03-31T10:16:11;12.48;;;5.28;;
65315;SDS011;51920;53.952;10.292;2023-03-31T10:18:41;9.40;;;5.70;;
65315;SDS011;51920;53.952;10.292;2023-03-31T10:21:18;13.73;;;6.43;;
65315;SDS011;51920;53.952;10.292;2023-03-31T10:23:53;12.18;;;6.35;;
65315;SDS011;51920;53.952;10.292;2023-03-31T10:26:21;12.88;;;6.65;;
65315;SDS011;51920;53.952;10.292;2023-03-31T10:28:51;11.27;;;6.50;;
65315;SDS011;51920;53.952;10.292;2023-03-31T10:31:32;12.55;;;6.63;;
65315;SDS011;51920;53.952;10.292;2023-03-31T10:34:08;11.77;;;6.70;;
65315;SDS011;51920;53.952;10.292;2023-03-31T10:36:45;12.77;;;7.10;;
65315;SDS011;51920;53.952;10.292;2023-03-31T10:39:15;12.27;;;7.15;;
65315;SDS011;51920;53.952;10.292;2023-03-31T10:41:43;12.07;;;6.82;;
65315;SDS011;51920;53.952;10.292;2023-03-31T10:49:39;10.80;;;5.65;;
65315;SDS011;51920;53.952;10.292;2023-03-31T10:54:59;10.75;;;5.88;;
65315;SDS011;51920;53.952;10.292;2023-03-31T11:00:27;8.60;;;4.90;;
65315;SDS011;51920;53.952;10.292;2023-03-31T11:14:57;7.33;;;4.80;;
65315;SDS011;51920;53.952;10.292;2023-03-31T11:23:24;5.20;;;3.45;;
65315;SDS011;51920;53.952;10.292;2023-03-31T11:26:24;6.78;;;3.40;;
65315;SDS011;51920;53.952;10.292;2023-03-31T11:29:10;5.77;;;3.40;;
65315;SDS011;51920;53.952;10.292;2023-03-31T11:37:41;5.43;;;3.72;;
65315;SDS011;51920;53.952;10.292;2023-03-31T11:42:56;4.47;;;3.60;;
65315;SDS011;51920;53.952;10.292;2023-03-31T11:45:34;6.30;;;3.38;;
65315;SDS011;51920;53.952;10.292;2023-03-31T11:48:06;4.25;;;3.45;;
65315;SDS011;51920;53.952;10.292;2023-03-31T11:50:42;4.90;;;3.63;;
65315;SDS011;51920;53.952;10.292;2023-03-31T11:53:16;4.93;;;3.30;;
65315;SDS011;51920;53.952;10.292;2023-03-31T11:55:44;4.97;;;3.43;;
65315;SDS011;51920;53.952;10.292;2023-03-31T11:58:16;5.15;;;3.22;;
65315;SDS011;51920;53.952;10.292;2023-03-31T12:01:08;5.57;;;3.40;;
65315;SDS011;51920;53.952;10.292;2023-03-31T12:06:14;6.50;;;3.45;;
65315;SDS011;51920;53.952;10.292;2023-03-31T12:08:46;5.60;;;3.40;;
65315;SDS011;51920;53.952;10.292;2023-03-31T12:11:21;4.32;;;2.95;;
65315;SDS011;51920;53.952;10.292;2023-03-31T12:14:23;5.80;;;3.33;;
65315;SDS011;51920;53.952;10.292;2023-03-31T12:16:51;6.32;;;3.50;;
65315;SDS011;51920;53.952;10.292;2023-03-31T12:25:15;5.53;;;3.50;;
65315;SDS011;51920;53.952;10.292;2023-03-31T12:27:48;4.80;;;3.55;;
65315;SDS011;51920;53.952;10.292;2023-03-31T12:55:23;4.50;;;2.85;;
65315;SDS011;51920;53.952;10.292;2023-03-31T13:01:09;4.00;;;2.40;;
65315;SDS011;51920;53.952;10.292;2023-03-31T13:03:47;4.88;;;2.70;;
65315;SDS011;51920;53.952;10.292;2023-03-31T13:09:00;5.57;;;2.63;;
65315;SDS011;51920;53.952;10.292;2023-03-31T13:16:38;4.32;;;1.95;;
65315;SDS011;51920;53.952;10.292;2023-03-31T13:19:05;3.30;;;2.10;;
65315;SDS011;51920;53.952;10.292;2023-03-31T13:21:50;4.03;;;2.40;;
65315;SDS011;51920;53.952;10.292;2023-03-31T13:24:20;2.80;;;2.20;;
65315;SDS011;51920;53.952;10.292;2023-03-31T13:26:49;5.72;;;2.95;;
65315;SDS011;51920;53.952;10.292;2023-03-31T13:34:32;4.17;;;2.57;;
65315;SDS011;51920;53.952;10.292;2023-03-31T13:40:25;3.33;;;2.58;;
65315;SDS011;51920;53.952;10.292;2023-03-31T14:08:46;2.13;;;1.50;;
65315;SDS011;51920;53.952;10.292;2023-03-31T14:14:03;2.17;;;1.80;;
65315;SDS011;51920;53.952;10.292;2023-03-31T14:16:44;2.17;;;1.57;;
65315;SDS011;51920;53.952;10.292;2023-03-31T14:27:44;4.55;;;2.28;;
65315;SDS011;51920;53.952;10.292;2023-03-31T14:30:33;2.93;;;2.20;;
65315;SDS011;51920;53.952;10.292;2023-03-31T14:39:13;3.70;;;2.38;;
65315;SDS011;51920;53.952;10.292;2023-03-31T14:41:42;4.45;;;2.85;;
65315;SDS011;51920;53.952;10.292;2023-03-31T14:44:12;3.90;;;2.80;;
65315;SDS011;51920;53.952;10.292;2023-03-31T14:46:41;4.72;;;2.70;;
65315;SDS011;51920;53.952;10.292;2023-03-31T14:51:43;3.92;;;2.80;;
65315;SDS011;51920;53.952;10.292;2023-03-31T14:54:17;5.18;;;3.00;;
65315;SDS011;51920;53.952;10.292;2023-03-31T14:56:55;6.63;;;3.40;;
65315;SDS011;51920;53.952;10.292;2023-03-31T14:59:25;6.70;;;3.53;;
65315;SDS011;51920;53.952;10.292;2023-03-31T15:01:55;5.50;;;3.45;;
65315;SDS011;51920;53.952;10.292;2023-03-31T15:04:25;6.13;;;3.72;;
65315;SDS011;51920;53.952;10.292;2023-03-31T15:07:00;7.43;;;4.13;;
65315;SDS011;51920;53.952;10.292;2023-03-31T15:09:31;6.60;;;4.00;;
65315;SDS011;51920;53.952;10.292;2023-03-31T15:12:21;6.78;;;4.00;;
65315;SDS011;51920;53.952;10.292;2023-03-31T15:14:49;6.30;;;3.80;;
65315;SDS011;51920;53.952;10.292;2023-03-31T15:17:26;4.50;;;3.60;;
65315;SDS011;51920;53.952;10.292;2023-03-31T15:19:56;4.63;;;3.40;;
65315;SDS011;51920;53.952;10.292;2023-03-31T15:22:28;4.80;;;3.40;;
65315;SDS011;51920;53.952;10.292;2023-03-31T15:24:56;8.98;;;4.82;;
65315;SDS011;51920;53.952;10.292;2023-03-31T15:30:37;5.72;;;4.00;;
65315;SDS011;51920;53.952;10.292;2023-03-31T15:33:07;5.18;;;3.88;;
65315;SDS011;51920;53.952;10.292;2023-03-31T15:35:44;6.20;;;3.60;;
65315;SDS011;51920;53.952;10.292;2023-03-31T15:38:12;6.10;;;3.88;;
65315;SDS011;51920;53.952;10.292;2023-03-31T15:40:44;7.07;;;4.55;;
65315;SDS011;51920;53.952;10.292;2023-03-31T15:47:01;6.97;;;3.50;;
65315;SDS011;51920;53.952;10.292;2023-03-31T15:49:33;6.40;;;3.80;;
65315;SDS011;51920;53.952;10.292;2023-03-31T15:52:00;5.20;;;3.90;;
65315;SDS011;51920;53.952;10.292;2023-03-31T15:54:29;5.15;;;3.55;;
65315;SDS011;51920;53.952;10.292;2023-03-31T15:56:59;6.05;;;3.80;;
65315;SDS011;51920;53.952;10.292;2023-03-31T15:59:28;5.00;;;3.97;;
65315;SDS011;51920;53.952;10.292;2023-03-31T16:02:00;6.43;;;3.90;;
65315;SDS011;51920;53.952;10.292;2023-03-31T16:04:31;6.68;;;4.20;;
65315;SDS011;51920;53.952;10.292;2023-03-31T16:07:02;7.47;;;4.60;;
65315;SDS011;51920;53.952;10.292;2023-03-31T16:12:14;6.97;;;4.07;;
65315;SDS011;51920;53.952;10.292;2023-03-31T16:14:48;7.67;;;4.60;;
65315;SDS011;51920;53.952;10.292;2023-03-31T16:17:29;13.52;;;6.32;;
65315;SDS011;51920;53.952;10.292;2023-03-31T16:20:06;8.13;;;4.70;;
65315;SDS011;51920;53.952;10.292;2023-03-31T16:22:55;12.30;;;6.40;;
65315;SDS011;51920;53.952;10.292;2023-03-31T16:25:26;7.65;;;4.40;;
65315;SDS011;51920;53.952;10.292;2023-03-31T16:27:57;6.47;;;4.10;;
65315;SDS011;51920;53.952;10.292;2023-03-31T16:30:36;9.80;;;4.20;;
65315;SDS011;51920;53.952;10.292;2023-03-31T16:35:43;8.77;;;5.20;;
65315;SDS011;51920;53.952;10.292;2023-03-31T16:38:16;7.72;;;4.82;;
65315;SDS011;51920;53.952;10.292;2023-03-31T16:40:44;7.20;;;4.37;;
65315;SDS011;51920;53.952;10.292;2023-03-31T16:45:39;6.68;;;4.57;;
65315;SDS011;51920;53.952;10.292;2023-03-31T16:48:08;9.52;;;5.38;;
65315;SDS011;51920;53.952;10.292;2023-03-31T16:50:40;8.23;;;5.03;;
65315;SDS011;51920;53.952;10.292;2023-03-31T16:53:08;6.47;;;4.70;;
65315;SDS011;51920;53.952;10.292;2023-03-31T16:55:35;8.15;;;4.72;;
65315;SDS011;51920;53.952;10.292;2023-03-31T16:58:02;5.47;;;4.40;;
65315;SDS011;51920;53.952;10.292;2023-03-31T17:00:30;7.90;;;4.90;;
65315;SDS011;51920;53.952;10.292;2023-03-31T17:02:57;10.05;;;5.50;;
65315;SDS011;51920;53.952;10.292;2023-03-31T17:05:24;8.97;;;5.63;;
65315;SDS011;51920;53.952;10.292;2023-03-31T17:07:51;9.15;;;6.15;;
65315;SDS011;51920;53.952;10.292;2023-03-31T17:10:18;10.05;;;5.90;;
65315;SDS011;51920;53.952;10.292;2023-03-31T17:12:44;7.57;;;5.22;;
65315;SDS011;51920;53.952;10.292;2023-03-31T17:15:11;8.32;;;5.57;;
65315;SDS011;51920;53.952;10.292;2023-03-31T17:17:38;10.17;;;6.10;;
65315;SDS011;51920;53.952;10.292;2023-03-31T17:20:05;9.70;;;5.88;;
65315;SDS011;51920;53.952;10.292;2023-03-31T17:22:34;10.68;;;5.90;;
65315;SDS011;51920;53.952;10.292;2023-03-31T17:25:02;9.20;;;5.93;;
65315;SDS011;51920;53.952;10.292;2023-03-31T17:27:29;14.27;;;8.63;;
65315;SDS011;51920;53.952;10.292;2023-03-31T17:29:56;16.03;;;9.47;;
65315;SDS011;51920;53.952;10.292;2023-03-31T17:32:23;13.20;;;7.80;;
65315;SDS011;51920;53.952;10.292;2023-03-31T17:34:49;13.95;;;7.15;;
65315;SDS011;51920;53.952;10.292;2023-03-31T17:37:16;10.38;;;5.72;;
65315;SDS011;51920;53.952;10.292;2023-03-31T17:39:44;6.47;;;4.70;;
65315;SDS011;51920;53.952;10.292;2023-03-31T17:42:11;7.17;;;4.20;;
65315;SDS011;51920;53.952;10.292;2023-03-31T17:44:38;6.40;;;4.05;;
65315;SDS011;51920;53.952;10.292;2023-03-31T17:47:06;5.43;;;4.20;;
65315;SDS011;51920;53.952;10.292;2023-03-31T17:49:33;4.55;;;3.47;;
65315;SDS011;51920;53.952;10.292;2023-03-31T17:52:00;5.32;;;3.50;;
65315;SDS011;51920;53.952;10.292;2023-03-31T17:54:27;5.00;;;3.20;;
65315;SDS011;51920;53.952;10.292;2023-03-31T17:56:53;4.70;;;2.97;;
65315;SDS011;51920;53.952;10.292;2023-03-31T17:59:20;4.63;;;3.20;;
65315;SDS011;51920;53.952;10.292;2023-03-31T18:01:47;4.65;;;3.28;;
65315;SDS011;51920;53.952;10.292;2023-03-31T18:04:14;4.45;;;3.10;;
65315;SDS011;51920;53.952;10.292;2023-03-31T18:06:41;4.20;;;2.80;;
65315;SDS011;51920;53.952;10.292;2023-03-31T18:09:10;4.40;;;2.85;;
65315;SDS011;51920;53.952;10.292;2023-03-31T18:11:36;3.30;;;2.88;;
65315;SDS011;51920;53.952;10.292;2023-03-31T18:14:03;4.13;;;3.13;;
65315;SDS011;51920;53.952;10.292;2023-03-31T18:16:30;3.78;;;2.95;;
65315;SDS011;51920;53.952;10.292;2023-03-31T18:18:57;4.90;;;3.23;;
65315;SDS011;51920;53.952;10.292;2023-03-31T18:21:23;4.95;;;3.45;;
65315;SDS011;51920;53.952;10.292;2023-03-31T18:23:51;5.40;;;3.58;;
65315;SDS011;51920;53.952;10.292;2023-03-31T18:26:18;6.63;;;4.68;;
65315;SDS011;51920;53.952;10.292;2023-03-31T18:28:45;7.30;;;5.20;;
65315;SDS011;51920;53.952;10.292;2023-03-31T18:31:12;7.60;;;5.17;;